マン島 の空港の天気 - METARとTAF

マン島空港 ( EGNS / IOM ) - マン島 Isle of Man
飛行場実況気象(Metar)
観測時間08/16 07:20 BST (08/16 06:20 UTC)
風向・風速西南西 8m/s
視程10km以上
天気現象
全天の4割程度の雲 雲底高度 550m
気温14℃
湿度77%
気圧1008hPa
METAREGNS 160620Z 24015KT 9999 SCT018 14/10 Q1008 NOSIG
過去の天気等 Google飛行場航空写真 Wunderground天気予報

過去48時間のMETAR

飛行場予報(TAF)
発表時間: 8/16 06:00 BST (8/16 05:00 UTC)
予報対象時間: 16日7時 BST ~ 16日16時 BST
風向・風速西南西 8m/s
視程10km以上
少しの雲 雲底高度 490m
TAF EGNS 160500Z 1606/1615 25015KT 9999 FEW016